createdAt,value
2019-02-08T00:00:11.578Z,77.67
2019-02-08T00:02:43.516Z,72.20
2019-02-08T00:05:15.277Z,73.23
2019-02-08T00:07:46.433Z,93.23
2019-02-08T00:10:16.907Z,78.37
2019-02-08T00:12:47.110Z,116.00
2019-02-08T00:15:18.137Z,120.67
2019-02-08T00:17:48.379Z,89.57
2019-02-08T00:20:20.854Z,66.93
2019-02-08T00:22:51.167Z,82.87
2019-02-08T00:25:21.509Z,72.10
2019-02-08T00:27:51.734Z,68.73
2019-02-08T00:30:24.261Z,67.40
2019-02-08T00:32:54.574Z,69.00
2019-02-08T00:35:25.082Z,54.37
2019-02-08T00:37:55.214Z,69.57
2019-02-08T00:40:26.028Z,66.77
2019-02-08T00:42:56.576Z,63.00
2019-02-08T00:45:26.672Z,67.77
2019-02-08T00:47:56.933Z,64.50
2019-02-08T00:50:27.002Z,63.37
2019-02-08T00:52:57.207Z,57.73
2019-02-08T00:55:27.572Z,67.37
2019-02-08T00:57:58.100Z,65.70
2019-02-08T01:00:28.312Z,52.57
2019-02-08T01:02:58.429Z,52.67
2019-02-08T01:05:28.942Z,60.30
2019-02-08T01:07:59.271Z,71.63
2019-02-08T01:10:30.486Z,61.10
2019-02-08T01:13:01.290Z,49.53
2019-02-08T01:15:31.911Z,54.90
2019-02-08T01:18:02.291Z,59.03
2019-02-08T01:20:32.444Z,57.97
2019-02-08T01:23:02.799Z,51.77
2019-02-08T01:25:33.047Z,54.13
2019-02-08T01:28:03.287Z,55.37
2019-02-08T01:30:33.871Z,60.20
2019-02-08T01:33:04.148Z,63.37
2019-02-08T01:35:34.473Z,50.37
2019-02-08T01:38:05.031Z,74.53
2019-02-08T01:40:37.030Z,59.07
2019-02-08T01:43:08.007Z,64.30
2019-02-08T01:45:38.236Z,51.23
2019-02-08T01:48:08.691Z,65.87
2019-02-08T01:50:38.778Z,68.57
2019-02-08T01:53:08.814Z,60.83
2019-02-08T01:55:38.922Z,62.07
2019-02-08T01:58:08.970Z,44.97
2019-02-08T02:00:41.453Z,64.13
2019-02-08T02:03:11.747Z,61.57
2019-02-08T02:05:42.131Z,48.83
2019-02-08T02:08:12.095Z,62.27
2019-02-08T02:10:43.714Z,58.37
2019-02-08T02:13:14.174Z,48.83
2019-02-08T02:15:44.225Z,64.90
2019-02-08T02:18:14.260Z,58.40
2019-02-08T02:20:44.367Z,56.83
2019-02-08T02:23:15.982Z,56.50
2019-02-08T02:25:45.954Z,42.57
2019-02-08T02:28:15.828Z,58.37
2019-02-08T02:30:45.800Z,56.97
2019-02-08T02:33:15.787Z,69.67
2019-02-08T02:35:47.922Z,51.53
2019-02-08T02:38:17.849Z,71.90
2019-02-08T02:40:47.802Z,57.13
2019-02-08T02:43:18.813Z,55.50
2019-02-08T02:45:48.900Z,78.63
2019-02-08T02:48:18.924Z,61.80
2019-02-08T02:50:48.986Z,48.20
2019-02-08T02:53:18.968Z,49.07
2019-02-08T02:55:49.057Z,58.13
2019-02-08T02:58:19.048Z,51.70
2019-02-08T03:00:49.428Z,40.00
2019-02-08T03:03:19.432Z,62.23
2019-02-08T03:05:49.824Z,58.80
2019-02-08T03:08:20.003Z,60.37
2019-02-08T03:10:50.054Z,62.30
2019-02-08T03:13:20.224Z,54.63
2019-02-08T03:15:50.215Z,61.93
2019-02-08T03:18:20.258Z,66.27
2019-02-08T03:20:50.421Z,56.73
2019-02-08T03:23:20.496Z,58.13
2019-02-08T03:25:50.641Z,64.73
2019-02-08T03:28:20.626Z,69.20
2019-02-08T03:30:57.262Z,67.63
2019-02-08T03:33:27.596Z,49.83
2019-02-08T03:35:57.752Z,51.20
2019-02-08T03:38:27.832Z,72.80
2019-02-08T03:40:57.884Z,49.77
2019-02-08T03:43:28.406Z,66.83
2019-02-08T03:45:58.473Z,60.73
2019-02-08T03:48:28.455Z,53.30
2019-02-08T03:50:58.533Z,67.07
2019-02-08T03:53:28.735Z,74.10
2019-02-08T03:55:59.041Z,62.37
2019-02-08T03:58:29.174Z,56.83
2019-02-08T04:01:04.444Z,74.97
2019-02-08T04:03:34.675Z,49.53
2019-02-08T04:06:05.435Z,73.40
2019-02-08T04:08:36.599Z,65.97
2019-02-08T04:11:06.795Z,32.43
2019-02-08T04:13:37.014Z,70.97
2019-02-08T04:16:07.119Z,64.60
2019-02-08T04:18:57.321Z,58.03
2019-02-08T04:21:27.456Z,42.20
2019-02-08T04:23:57.464Z,67.57
2019-02-08T04:26:27.485Z,72.50
2019-02-08T04:28:57.536Z,72.70
2019-02-08T04:31:27.618Z,77.50
2019-02-08T04:33:57.691Z,66.47
2019-02-08T04:36:28.756Z,68.97
2019-02-08T04:38:58.892Z,53.57
2019-02-08T04:41:28.890Z,70.53
2019-02-08T04:43:58.911Z,77.13
2019-02-08T04:46:28.949Z,51.67
2019-02-08T04:49:11.817Z,63.23
2019-02-08T04:51:41.858Z,71.83
2019-02-08T04:54:11.969Z,63.67
2019-02-08T04:56:42.121Z,69.93
2019-02-08T04:59:12.269Z,72.83
2019-02-08T05:01:42.473Z,67.33
2019-02-08T05:04:12.711Z,50.37
2019-02-08T05:06:42.842Z,70.80
2019-02-08T05:09:13.070Z,78.30
2019-02-08T05:11:44.144Z,69.00
2019-02-08T05:14:14.742Z,68.07
2019-02-08T05:16:44.798Z,76.60
2019-02-08T05:19:14.918Z,66.60
2019-02-08T05:21:44.886Z,76.53
2019-02-08T05:24:15.113Z,69.00
2019-02-08T05:26:45.189Z,47.03
2019-02-08T05:29:15.113Z,79.23
2019-02-08T05:31:45.125Z,71.47
2019-02-08T05:34:15.241Z,69.30
2019-02-08T05:36:45.321Z,71.77
2019-02-08T05:39:15.443Z,66.43
2019-02-08T05:41:45.521Z,76.87
2019-02-08T05:44:34.674Z,69.90
2019-02-08T05:47:05.518Z,69.90
2019-02-08T05:49:54.797Z,74.97
2019-02-08T05:52:24.922Z,72.53
2019-02-08T05:54:54.954Z,74.97
2019-02-08T05:57:25.023Z,71.03
2019-02-08T05:59:56.894Z,70.33
2019-02-08T06:02:26.962Z,75.73
2019-02-08T06:04:57.075Z,70.17
2019-02-08T06:07:27.176Z,75.23
2019-02-08T06:09:57.423Z,75.30
2019-02-08T06:12:27.516Z,71.30
2019-02-08T06:14:57.554Z,78.77
2019-02-08T06:17:27.567Z,76.97
2019-02-08T06:19:57.566Z,72.07
2019-02-08T06:22:27.703Z,70.03
2019-02-08T06:25:03.792Z,81.03
2019-02-08T06:27:29.454Z,59.80
2019-02-08T06:29:59.445Z,74.23
2019-02-08T06:32:29.482Z,68.57
2019-02-08T06:34:59.517Z,81.07
2019-02-08T06:37:29.565Z,74.23
2019-02-08T06:39:59.789Z,81.70
2019-02-08T06:42:29.689Z,69.77
2019-02-08T06:44:59.729Z,79.47
2019-02-08T06:47:29.886Z,72.47
2019-02-08T06:50:00.941Z,79.57
2019-02-08T06:52:31.028Z,77.50
2019-02-08T06:55:01.089Z,69.50
2019-02-08T06:57:36.917Z,66.40
2019-02-08T07:00:18.518Z,74.80
2019-02-08T07:03:07.665Z,57.83
2019-02-08T07:05:53.631Z,67.37
2019-02-08T07:08:31.904Z,71.40
2019-02-08T07:11:18.347Z,71.87
2019-02-08T07:14:09.476Z,72.57
2019-02-08T07:16:58.614Z,68.50
2019-02-08T07:19:38.897Z,71.27
2019-02-08T07:22:21.068Z,69.73
2019-02-08T07:24:59.205Z,70.07
2019-02-08T07:27:38.337Z,68.87
2019-02-08T07:30:20.498Z,67.97
2019-02-08T07:33:09.737Z,55.87
2019-02-08T07:35:50.729Z,68.33
2019-02-08T07:38:40.209Z,55.43
2019-02-08T07:41:30.069Z,68.40
2019-02-08T07:44:19.887Z,70.27
2019-02-08T07:47:01.956Z,67.27
2019-02-08T07:49:41.223Z,66.40
2019-02-08T07:52:30.490Z,70.23
2019-02-08T07:55:25.996Z,69.87
2019-02-08T07:58:09.029Z,71.10
2019-02-08T08:00:53.316Z,73.60
2019-02-08T08:03:42.489Z,68.23
2019-02-08T08:06:32.991Z,61.50
2019-02-08T08:09:24.009Z,64.77
2019-02-08T08:12:03.068Z,72.03
2019-02-08T08:14:53.045Z,59.07
2019-02-08T08:17:42.491Z,59.90
2019-02-08T08:20:30.597Z,71.60
2019-02-08T08:23:08.330Z,61.60
2019-02-08T08:25:59.127Z,70.27
2019-02-08T08:28:47.249Z,63.20
2019-02-08T08:31:22.288Z,61.87
2019-02-08T08:33:58.289Z,49.40
2019-02-08T08:36:56.044Z,40.53
2019-02-08T08:40:05.116Z,67.57
2019-02-08T08:43:15.649Z,59.67
2019-02-08T08:46:23.968Z,66.40
2019-02-08T08:49:07.456Z,54.13
2019-02-08T08:52:14.551Z,63.27
2019-02-08T08:55:22.884Z,63.77
2019-02-08T08:58:28.695Z,63.73
2019-02-08T09:01:13.953Z,70.10
2019-02-08T09:04:09.187Z,64.07
2019-02-08T09:07:17.580Z,65.47
2019-02-08T09:10:25.985Z,65.23
2019-02-08T09:13:32.992Z,67.67
2019-02-08T09:16:41.514Z,51.20
2019-02-08T09:19:42.273Z,57.30
2019-02-08T09:22:21.165Z,67.53
2019-02-08T09:25:16.784Z,68.62
2019-02-08T09:28:25.462Z,64.17
2019-02-08T09:31:21.487Z,64.27
2019-02-08T09:34:25.751Z,63.07
2019-02-08T09:37:31.943Z,56.70
2019-02-08T09:40:40.251Z,63.10
2019-02-08T09:43:49.932Z,69.43
2019-02-08T09:46:47.568Z,55.83
2019-02-08T09:49:55.983Z,54.30
2019-02-08T09:53:04.563Z,68.52
2019-02-08T09:56:10.778Z,66.33
2019-02-08T09:59:19.411Z,49.90
2019-02-08T10:02:27.743Z,64.60
2019-02-08T10:05:36.103Z,56.90
2019-02-08T10:08:37.323Z,66.20
2019-02-08T10:11:45.761Z,66.05
2019-02-08T10:14:54.922Z,64.87
2019-02-08T10:18:03.319Z,65.93
2019-02-08T10:21:11.696Z,58.98
2019-02-08T10:24:10.621Z,53.95
2019-02-08T10:27:09.929Z,57.07
2019-02-08T10:30:18.303Z,62.37
2019-02-08T10:33:22.006Z,46.83
2019-02-08T10:36:30.536Z,68.37
2019-02-08T10:39:38.875Z,61.85
2019-02-08T10:42:40.035Z,61.00
2019-02-08T10:45:40.265Z,67.20
2019-02-08T10:48:48.746Z,41.00
2019-02-08T10:51:44.845Z,63.02
2019-02-08T10:54:47.468Z,64.40
2019-02-08T10:57:48.544Z,60.17
2019-02-08T11:00:57.005Z,58.87
2019-02-08T11:04:05.461Z,56.65
2019-02-08T11:07:04.623Z,57.15
2019-02-08T11:10:09.455Z,53.55
2019-02-08T11:12:52.668Z,57.00
2019-02-08T11:15:53.208Z,55.50
2019-02-08T11:19:01.540Z,58.28
2019-02-08T11:21:31.737Z,59.85
2019-02-08T11:24:01.935Z,61.20
2019-02-08T11:26:32.116Z,54.75
2019-02-08T11:29:02.331Z,70.20
2019-02-08T11:31:32.475Z,32.93
2019-02-08T11:34:02.670Z,55.28
2019-02-08T11:36:32.962Z,53.42
2019-02-08T11:39:03.910Z,56.65
2019-02-08T11:41:35.640Z,51.92
2019-02-08T11:44:05.815Z,51.28
2019-02-08T11:46:36.107Z,56.68
2019-02-08T11:49:07.076Z,51.30
2019-02-08T11:51:37.155Z,50.75
2019-02-08T11:54:07.951Z,42.78
2019-02-08T11:56:38.183Z,48.02
2019-02-08T11:59:08.365Z,52.38
2019-02-08T12:01:42.720Z,44.00
2019-02-08T12:04:12.944Z,47.13
2019-02-08T12:06:43.163Z,48.85
2019-02-08T12:09:15.505Z,43.92
2019-02-08T12:11:45.620Z,40.55
2019-02-08T12:14:15.836Z,47.75
2019-02-08T12:16:45.892Z,41.28
2019-02-08T12:19:16.095Z,46.10
2019-02-08T12:21:46.410Z,49.63
2019-02-08T12:24:16.813Z,44.03
2019-02-08T12:26:46.934Z,37.67
2019-02-08T12:29:17.419Z,42.27
2019-02-08T12:31:47.471Z,47.93
2019-02-08T12:34:17.496Z,40.20
2019-02-08T12:36:47.791Z,40.63
2019-02-08T12:39:17.784Z,37.80
2019-02-08T12:41:47.883Z,38.00
2019-02-08T12:44:18.244Z,49.80
2019-02-08T12:46:49.600Z,37.73
2019-02-08T12:49:19.787Z,39.78
2019-02-08T12:51:51.076Z,35.78
2019-02-08T12:54:21.491Z,40.05
2019-02-08T12:56:52.531Z,35.65
2019-02-08T12:59:23.040Z,36.05
2019-02-08T13:01:53.155Z,36.23
2019-02-08T13:04:23.935Z,32.73
2019-02-08T13:06:54.103Z,33.70
2019-02-08T13:09:26.099Z,39.13
2019-02-08T13:11:56.230Z,35.38
2019-02-08T13:14:26.344Z,38.17
2019-02-08T13:16:56.309Z,44.18
2019-02-08T13:19:28.256Z,40.58
2019-02-08T13:21:58.335Z,44.83
2019-02-08T13:24:28.655Z,40.25
2019-02-08T13:26:58.635Z,42.95
2019-02-08T13:29:28.933Z,44.75
2019-02-08T13:31:59.164Z,42.25
2019-02-08T13:34:29.234Z,38.08
2019-02-08T13:36:59.328Z,40.90
2019-02-08T13:39:29.539Z,37.50
2019-02-08T13:41:59.759Z,37.70
2019-02-08T13:44:29.989Z,34.65
2019-02-08T13:47:00.091Z,36.48
2019-02-08T13:49:30.293Z,34.23
2019-02-08T13:52:00.443Z,34.03
2019-02-08T13:54:30.772Z,38.58
2019-02-08T13:57:01.001Z,34.23
2019-02-08T13:59:31.702Z,34.63
2019-02-08T14:02:02.012Z,38.88
2019-02-08T14:04:32.169Z,48.48
2019-02-08T14:07:02.414Z,46.88
2019-02-08T14:09:32.515Z,39.23
2019-02-08T14:12:02.609Z,42.67
2019-02-08T14:14:32.747Z,49.63
2019-02-08T14:17:02.842Z,42.60
2019-02-08T14:19:32.895Z,46.77
2019-02-08T14:22:03.070Z,48.40
2019-02-08T14:24:33.235Z,44.75
2019-02-08T14:27:08.303Z,53.42
2019-02-08T14:29:35.154Z,45.63
2019-02-08T14:32:05.369Z,43.87
2019-02-08T14:34:43.287Z,47.45
2019-02-08T14:37:07.357Z,47.78
2019-02-08T14:39:37.612Z,48.40
2019-02-08T14:42:07.709Z,54.88
2019-02-08T14:44:38.168Z,52.58
2019-02-08T14:47:11.090Z,62.25
2019-02-08T14:49:41.229Z,65.95
2019-02-08T14:52:11.318Z,54.67
2019-02-08T14:54:41.449Z,69.65
2019-02-08T14:57:16.485Z,65.37
2019-02-08T14:59:43.350Z,60.60
2019-02-08T15:02:13.370Z,67.30
2019-02-08T15:04:43.565Z,67.78
2019-02-08T15:07:13.647Z,71.95
2019-02-08T15:09:43.998Z,64.22
2019-02-08T15:12:13.988Z,66.67
2019-02-08T15:14:44.118Z,64.15
2019-02-08T15:17:14.336Z,61.88
2019-02-08T15:19:44.411Z,64.50
2019-02-08T15:22:14.725Z,74.20
2019-02-08T15:24:44.808Z,75.70
2019-02-08T15:27:15.355Z,73.22
2019-02-08T15:29:45.464Z,82.08
2019-02-08T15:32:15.565Z,80.10
2019-02-08T15:34:45.547Z,59.08
2019-02-08T15:37:15.578Z,59.30
2019-02-08T15:39:45.669Z,49.90
2019-02-08T15:42:15.891Z,59.40
2019-02-08T15:44:46.145Z,55.38
2019-02-08T15:47:16.318Z,63.23
2019-02-08T15:49:46.404Z,66.45
2019-02-08T15:52:16.492Z,73.35
2019-02-08T15:54:46.629Z,66.28
2019-02-08T15:57:16.885Z,60.30
2019-02-08T15:59:46.890Z,72.78
2019-02-08T16:03:20.173Z,59.05
2019-02-08T16:06:24.052Z,68.78
2019-02-08T16:09:06.626Z,60.95
2019-02-08T16:11:46.153Z,60.75
2019-02-08T16:14:55.477Z,68.67
2019-02-08T16:17:46.290Z,57.73
2019-02-08T16:21:09.207Z,58.40
2019-02-08T16:24:09.452Z,56.50
2019-02-08T16:26:41.011Z,57.73
2019-02-08T16:29:20.749Z,66.57
2019-02-08T16:32:02.117Z,71.55
2019-02-08T16:35:13.575Z,65.37
2019-02-08T16:37:44.662Z,66.07
2019-02-08T16:40:19.558Z,55.85
2019-02-08T16:42:50.027Z,65.67
2019-02-08T16:45:28.361Z,70.05
2019-02-08T16:48:00.205Z,66.10
2019-02-08T16:50:31.503Z,66.40
2019-02-08T16:53:01.655Z,70.40
2019-02-08T16:55:32.569Z,70.10
2019-02-08T16:58:04.438Z,74.77
2019-02-08T17:00:36.307Z,67.70
2019-02-08T17:03:11.345Z,63.13
2019-02-08T17:06:02.318Z,62.98
2019-02-08T17:09:00.103Z,68.75
2019-02-08T17:11:49.176Z,69.20
2019-02-08T17:14:23.965Z,67.35
2019-02-08T17:17:14.098Z,67.80
2019-02-08T17:19:49.665Z,78.02
2019-02-08T17:22:20.610Z,76.42
2019-02-08T17:24:57.404Z,74.80
2019-02-08T17:27:33.159Z,80.77
2019-02-08T17:30:03.955Z,73.33
2019-02-08T17:32:34.340Z,76.77
2019-02-08T17:35:07.804Z,86.43
2019-02-08T17:37:42.044Z,83.62
2019-02-08T17:40:18.704Z,84.05
2019-02-08T17:42:50.888Z,94.00
2019-02-08T17:45:21.735Z,84.72
2019-02-08T17:48:31.471Z,80.40
2019-02-08T17:53:53.557Z,84.17
2019-02-08T17:56:26.527Z,78.07
2019-02-08T17:58:57.995Z,81.67
2019-02-08T18:01:37.506Z,73.50
2019-02-08T18:04:38.510Z,73.57
2019-02-08T18:07:11.338Z,82.17
2019-02-08T18:09:42.465Z,82.25
2019-02-08T18:12:13.109Z,81.92
2019-02-08T18:14:43.258Z,86.60
2019-02-08T18:17:13.422Z,95.65
2019-02-08T18:19:43.470Z,89.93
2019-02-08T18:22:13.738Z,94.60
2019-02-08T18:24:43.950Z,90.07
2019-02-08T18:27:14.091Z,95.62
2019-02-08T18:29:44.115Z,89.30
2019-02-08T18:32:14.138Z,89.27
2019-02-08T18:34:44.309Z,87.33
2019-02-08T18:37:14.482Z,82.67
2019-02-08T18:39:44.607Z,99.07
2019-02-08T18:42:14.618Z,90.32
2019-02-08T18:44:44.665Z,83.17
2019-02-08T18:47:14.895Z,89.27
2019-02-08T18:49:44.969Z,81.77
2019-02-08T18:52:15.170Z,79.63
2019-02-08T18:54:45.141Z,83.93
2019-02-08T18:57:15.161Z,82.30
2019-02-08T18:59:45.407Z,84.97
2019-02-08T19:02:35.098Z,94.13
2019-02-08T19:05:17.570Z,91.50
2019-02-08T19:07:48.876Z,91.08
2019-02-08T19:10:23.410Z,87.80
2019-02-08T19:13:04.272Z,103.17
2019-02-08T19:15:48.048Z,100.17
2019-02-08T19:18:46.230Z,97.83
2019-02-08T19:21:43.714Z,92.67
2019-02-08T19:24:32.938Z,86.37
2019-02-08T19:27:05.749Z,91.70
2019-02-08T19:29:35.830Z,89.50
2019-02-08T19:32:06.193Z,79.40
2019-02-08T19:34:36.486Z,92.33
2019-02-08T19:37:06.716Z,96.37
2019-02-08T19:40:02.777Z,91.93
2019-02-08T19:42:45.324Z,91.83
2019-02-08T19:45:28.273Z,101.93
2019-02-08T19:48:16.089Z,88.93
2019-02-08T19:51:02.242Z,86.33
2019-02-08T19:53:38.869Z,79.63
2019-02-08T19:56:10.670Z,77.80
2019-02-08T19:58:52.556Z,87.87
2019-02-08T20:01:28.273Z,84.60
2019-02-08T20:04:12.976Z,83.53
2019-02-08T20:06:50.509Z,89.10
2019-02-08T20:09:32.238Z,90.43
2019-02-08T20:12:25.577Z,81.57
2019-02-08T20:15:05.235Z,86.13
2019-02-08T20:17:40.696Z,94.93
2019-02-08T20:20:11.902Z,87.77
2019-02-08T20:22:45.465Z,77.33
2019-02-08T20:25:21.018Z,80.53
2019-02-08T20:27:52.971Z,77.82
2019-02-08T20:30:32.122Z,86.63
2019-02-08T20:33:12.646Z,70.87
2019-02-08T20:36:05.872Z,87.27
2019-02-08T20:38:47.147Z,83.10
2019-02-08T20:41:28.215Z,80.03
2019-02-08T20:44:10.729Z,81.67
2019-02-08T20:46:56.121Z,69.67
2019-02-08T20:49:44.246Z,82.47
2019-02-08T20:52:26.959Z,74.97
2019-02-08T20:55:16.664Z,80.10
2019-02-08T21:00:39.385Z,77.00
2019-02-08T21:03:20.461Z,73.77
2019-02-08T21:06:02.043Z,85.33
2019-02-08T21:08:38.878Z,73.73
2019-02-08T21:11:22.297Z,69.33
2019-02-08T21:13:52.956Z,84.63
2019-02-08T21:16:37.215Z,80.13
2019-02-08T21:19:14.484Z,83.03
2019-02-08T21:22:00.750Z,73.00
2019-02-08T21:24:32.031Z,87.47
2019-02-08T21:27:02.213Z,86.60
2019-02-08T21:29:32.673Z,95.60
2019-02-08T21:32:02.879Z,86.50
2019-02-08T21:34:44.919Z,90.73
2019-02-08T21:37:15.176Z,106.73
2019-02-08T21:39:45.515Z,82.83
2019-02-08T21:42:15.951Z,91.67
2019-02-08T21:44:45.990Z,83.17
2019-02-08T21:47:16.515Z,85.97
2019-02-08T21:49:46.769Z,90.93
2019-02-08T21:52:16.796Z,84.80
2019-02-08T21:54:47.052Z,99.87
2019-02-08T21:57:17.396Z,82.20
2019-02-08T21:59:47.986Z,88.10
2019-02-08T22:02:18.415Z,90.23
2019-02-08T22:04:49.055Z,93.80
2019-02-08T22:07:19.283Z,86.65
2019-02-08T22:09:49.286Z,87.60
2019-02-08T22:12:20.415Z,87.53
2019-02-08T22:14:50.502Z,91.00
2019-02-08T22:17:21.340Z,88.63
2019-02-08T22:19:51.478Z,75.83
2019-02-08T22:22:21.588Z,79.10
2019-02-08T22:24:51.694Z,93.07
2019-02-08T22:27:21.686Z,84.63
2019-02-08T22:30:12.813Z,98.37
2019-02-08T22:32:42.950Z,89.07
2019-02-08T22:35:14.367Z,86.97
2019-02-08T22:37:44.714Z,87.03
2019-02-08T22:40:16.745Z,94.33
2019-02-08T22:42:46.929Z,89.83
2019-02-08T22:45:22.852Z,92.40
2019-02-08T22:47:52.995Z,85.53
2019-02-08T22:50:23.109Z,88.50
2019-02-08T22:52:53.226Z,96.73
2019-02-08T22:55:25.130Z,97.40
2019-02-08T22:57:55.228Z,92.47
2019-02-08T23:01:04.766Z,94.43
2019-02-08T23:03:38.046Z,88.57
2019-02-08T23:06:09.006Z,99.63
2019-02-08T23:08:58.208Z,91.73
2019-02-08T23:11:28.820Z,99.37
2019-02-08T23:13:59.024Z,90.63
2019-02-08T23:16:29.226Z,91.77
2019-02-08T23:19:00.344Z,91.30
2019-02-08T23:21:30.454Z,87.87
2019-02-08T23:24:01.504Z,93.00
2019-02-08T23:26:31.619Z,88.80
2019-02-08T23:29:01.815Z,95.47
2019-02-08T23:31:31.995Z,88.73
2019-02-08T23:34:02.155Z,97.13
2019-02-08T23:36:32.282Z,107.17
2019-02-08T23:39:04.223Z,114.33
2019-02-08T23:41:37.132Z,98.83
2019-02-08T23:44:07.095Z,96.10
2019-02-08T23:46:37.155Z,96.07
2019-02-08T23:49:07.275Z,109.23
2019-02-08T23:51:37.312Z,105.20
2019-02-08T23:54:07.527Z,107.80
2019-02-08T23:56:37.516Z,109.40
2019-02-08T23:59:07.643Z,105.67
